sensor_id;sensor_type;location;lat;lon;timestamp;P1;durP1;ratioP1;P2;durP2;ratioP2
43620;SDS011;29213;50.770;7.298;2023-11-21T00:00:02;5.68;;;2.83;;
43620;SDS011;29213;50.770;7.298;2023-11-21T00:02:29;4.95;;;2.72;;
43620;SDS011;29213;50.770;7.298;2023-11-21T00:04:54;6.05;;;2.70;;
43620;SDS011;29213;50.770;7.298;2023-11-21T00:07:20;5.88;;;3.20;;
43620;SDS011;29213;50.770;7.298;2023-11-21T00:09:46;5.03;;;2.83;;
43620;SDS011;29213;50.770;7.298;2023-11-21T00:12:12;4.25;;;2.67;;
43620;SDS011;29213;50.770;7.298;2023-11-21T00:14:39;5.32;;;3.08;;
43620;SDS011;29213;50.770;7.298;2023-11-21T00:17:04;4.70;;;2.65;;
43620;SDS011;29213;50.770;7.298;2023-11-21T00:19:30;4.40;;;2.70;;
43620;SDS011;29213;50.770;7.298;2023-11-21T00:21:56;5.88;;;3.00;;
43620;SDS011;29213;50.770;7.298;2023-11-21T00:24:23;4.95;;;3.20;;
43620;SDS011;29213;50.770;7.298;2023-11-21T00:26:49;4.82;;;3.00;;
43620;SDS011;29213;50.770;7.298;2023-11-21T00:29:18;6.25;;;3.33;;
43620;SDS011;29213;50.770;7.298;2023-11-21T00:31:44;5.82;;;3.03;;
43620;SDS011;29213;50.770;7.298;2023-11-21T00:34:11;6.68;;;3.33;;
43620;SDS011;29213;50.770;7.298;2023-11-21T00:36:36;5.30;;;3.22;;
43620;SDS011;29213;50.770;7.298;2023-11-21T00:39:02;5.07;;;3.08;;
43620;SDS011;29213;50.770;7.298;2023-11-21T00:41:28;5.93;;;3.22;;
43620;SDS011;29213;50.770;7.298;2023-11-21T00:43:53;5.80;;;3.25;;
43620;SDS011;29213;50.770;7.298;2023-11-21T00:46:20;5.72;;;3.15;;
43620;SDS011;29213;50.770;7.298;2023-11-21T00:48:45;4.63;;;2.67;;
43620;SDS011;29213;50.770;7.298;2023-11-21T00:51:11;6.20;;;2.70;;
43620;SDS011;29213;50.770;7.298;2023-11-21T00:53:36;4.85;;;2.83;;
43620;SDS011;29213;50.770;7.298;2023-11-21T00:56:02;6.07;;;3.17;;
43620;SDS011;29213;50.770;7.298;2023-11-21T00:58:27;7.13;;;3.38;;
43620;SDS011;29213;50.770;7.298;2023-11-21T01:00:53;7.03;;;3.30;;
43620;SDS011;29213;50.770;7.298;2023-11-21T01:03:18;5.65;;;2.75;;
43620;SDS011;29213;50.770;7.298;2023-11-21T01:05:44;5.57;;;3.20;;
43620;SDS011;29213;50.770;7.298;2023-11-21T01:08:10;5.40;;;3.15;;
43620;SDS011;29213;50.770;7.298;2023-11-21T01:10:36;7.30;;;3.30;;
43620;SDS011;29213;50.770;7.298;2023-11-21T01:13:02;4.38;;;3.00;;
43620;SDS011;29213;50.770;7.298;2023-11-21T01:15:30;5.18;;;3.20;;
43620;SDS011;29213;50.770;7.298;2023-11-21T01:17:55;5.32;;;3.13;;
43620;SDS011;29213;50.770;7.298;2023-11-21T01:20:21;5.53;;;3.15;;
43620;SDS011;29213;50.770;7.298;2023-11-21T01:22:46;6.15;;;3.22;;
43620;SDS011;29213;50.770;7.298;2023-11-21T01:25:14;6.60;;;3.00;;
43620;SDS011;29213;50.770;7.298;2023-11-21T01:27:41;4.55;;;3.17;;
43620;SDS011;29213;50.770;7.298;2023-11-21T01:30:07;4.78;;;2.88;;
43620;SDS011;29213;50.770;7.298;2023-11-21T01:32:35;6.32;;;3.30;;
43620;SDS011;29213;50.770;7.298;2023-11-21T01:35:01;4.75;;;2.97;;
43620;SDS011;29213;50.770;7.298;2023-11-21T01:37:26;6.50;;;3.60;;
43620;SDS011;29213;50.770;7.298;2023-11-21T01:39:56;4.90;;;3.10;;
43620;SDS011;29213;50.770;7.298;2023-11-21T01:42:21;4.82;;;2.90;;
43620;SDS011;29213;50.770;7.298;2023-11-21T01:44:46;4.43;;;2.85;;
43620;SDS011;29213;50.770;7.298;2023-11-21T01:47:12;7.03;;;3.42;;
43620;SDS011;29213;50.770;7.298;2023-11-21T01:49:39;6.75;;;3.53;;
43620;SDS011;29213;50.770;7.298;2023-11-21T01:52:05;4.75;;;3.05;;
43620;SDS011;29213;50.770;7.298;2023-11-21T01:54:31;6.32;;;3.45;;
43620;SDS011;29213;50.770;7.298;2023-11-21T01:56:58;7.20;;;3.72;;
43620;SDS011;29213;50.770;7.298;2023-11-21T01:59:29;5.60;;;3.30;;
43620;SDS011;29213;50.770;7.298;2023-11-21T02:02:00;5.40;;;3.35;;
43620;SDS011;29213;50.770;7.298;2023-11-21T02:04:25;8.30;;;3.65;;
43620;SDS011;29213;50.770;7.298;2023-11-21T02:06:51;6.50;;;3.50;;
43620;SDS011;29213;50.770;7.298;2023-11-21T02:09:16;6.32;;;3.70;;
43620;SDS011;29213;50.770;7.298;2023-11-21T02:11:43;8.20;;;3.50;;
43620;SDS011;29213;50.770;7.298;2023-11-21T02:14:09;4.57;;;3.38;;
43620;SDS011;29213;50.770;7.298;2023-11-21T02:16:35;6.47;;;3.88;;
43620;SDS011;29213;50.770;7.298;2023-11-21T02:19:02;5.80;;;3.33;;
43620;SDS011;29213;50.770;7.298;2023-11-21T02:21:31;5.55;;;4.00;;
43620;SDS011;29213;50.770;7.298;2023-11-21T02:23:57;7.95;;;3.83;;
43620;SDS011;29213;50.770;7.298;2023-11-21T02:26:23;5.15;;;3.47;;
43620;SDS011;29213;50.770;7.298;2023-11-21T02:28:50;6.80;;;3.65;;
43620;SDS011;29213;50.770;7.298;2023-11-21T02:31:18;4.80;;;3.30;;
43620;SDS011;29213;50.770;7.298;2023-11-21T02:33:44;6.47;;;3.60;;
43620;SDS011;29213;50.770;7.298;2023-11-21T02:36:09;6.25;;;3.70;;
43620;SDS011;29213;50.770;7.298;2023-11-21T02:38:35;6.40;;;3.80;;
43620;SDS011;29213;50.770;7.298;2023-11-21T02:41:00;6.13;;;3.95;;
43620;SDS011;29213;50.770;7.298;2023-11-21T02:43:25;6.43;;;3.90;;
43620;SDS011;29213;50.770;7.298;2023-11-21T02:45:51;7.47;;;4.20;;
43620;SDS011;29213;50.770;7.298;2023-11-21T02:48:16;9.45;;;4.78;;
43620;SDS011;29213;50.770;7.298;2023-11-21T02:50:41;7.22;;;4.40;;
43620;SDS011;29213;50.770;7.298;2023-11-21T02:53:08;9.00;;;4.65;;
43620;SDS011;29213;50.770;7.298;2023-11-21T02:55:35;7.10;;;4.75;;
43620;SDS011;29213;50.770;7.298;2023-11-21T02:58:01;9.02;;;4.80;;
43620;SDS011;29213;50.770;7.298;2023-11-21T03:00:27;6.25;;;4.00;;
43620;SDS011;29213;50.770;7.298;2023-11-21T03:02:53;5.65;;;3.58;;
43620;SDS011;29213;50.770;7.298;2023-11-21T03:05:21;6.43;;;3.65;;
43620;SDS011;29213;50.770;7.298;2023-11-21T03:07:46;5.32;;;3.55;;
43620;SDS011;29213;50.770;7.298;2023-11-21T03:10:12;6.10;;;3.45;;
43620;SDS011;29213;50.770;7.298;2023-11-21T03:12:38;5.65;;;3.67;;
43620;SDS011;29213;50.770;7.298;2023-11-21T03:15:05;5.18;;;3.20;;
43620;SDS011;29213;50.770;7.298;2023-11-21T03:17:31;6.25;;;3.58;;
43620;SDS011;29213;50.770;7.298;2023-11-21T03:19:56;7.60;;;3.63;;
43620;SDS011;29213;50.770;7.298;2023-11-21T03:22:22;5.78;;;3.50;;
43620;SDS011;29213;50.770;7.298;2023-11-21T03:24:48;6.05;;;3.75;;
43620;SDS011;29213;50.770;7.298;2023-11-21T03:27:14;7.82;;;4.28;;
43620;SDS011;29213;50.770;7.298;2023-11-21T03:29:39;6.38;;;4.07;;
43620;SDS011;29213;50.770;7.298;2023-11-21T03:32:04;7.20;;;4.20;;
43620;SDS011;29213;50.770;7.298;2023-11-21T03:34:32;7.88;;;4.15;;
43620;SDS011;29213;50.770;7.298;2023-11-21T03:36:57;7.05;;;4.30;;
43620;SDS011;29213;50.770;7.298;2023-11-21T03:39:23;7.65;;;4.50;;
43620;SDS011;29213;50.770;7.298;2023-11-21T03:41:50;8.30;;;4.88;;
43620;SDS011;29213;50.770;7.298;2023-11-21T03:44:17;7.50;;;4.50;;
43620;SDS011;29213;50.770;7.298;2023-11-21T03:46:43;7.35;;;4.93;;
43620;SDS011;29213;50.770;7.298;2023-11-21T03:49:09;5.78;;;4.40;;
43620;SDS011;29213;50.770;7.298;2023-11-21T03:51:36;6.70;;;4.60;;
43620;SDS011;29213;50.770;7.298;2023-11-21T03:54:02;7.60;;;5.05;;
43620;SDS011;29213;50.770;7.298;2023-11-21T03:56:28;6.25;;;4.45;;
43620;SDS011;29213;50.770;7.298;2023-11-21T03:58:53;8.70;;;4.95;;
43620;SDS011;29213;50.770;7.298;2023-11-21T04:01:20;7.35;;;4.97;;
43620;SDS011;29213;50.770;7.298;2023-11-21T04:03:49;7.93;;;5.18;;
43620;SDS011;29213;50.770;7.298;2023-11-21T04:06:15;8.63;;;5.18;;
43620;SDS011;29213;50.770;7.298;2023-11-21T04:08:42;9.07;;;5.18;;
43620;SDS011;29213;50.770;7.298;2023-11-21T04:11:09;8.05;;;5.80;;
43620;SDS011;29213;50.770;7.298;2023-11-21T04:13:36;9.25;;;6.30;;
43620;SDS011;29213;50.770;7.298;2023-11-21T04:16:04;9.65;;;6.18;;
43620;SDS011;29213;50.770;7.298;2023-11-21T04:18:30;8.63;;;5.95;;
43620;SDS011;29213;50.770;7.298;2023-11-21T04:20:56;8.32;;;5.45;;
43620;SDS011;29213;50.770;7.298;2023-11-21T04:23:22;7.75;;;5.90;;
43620;SDS011;29213;50.770;7.298;2023-11-21T04:25:47;7.63;;;5.53;;
43620;SDS011;29213;50.770;7.298;2023-11-21T04:28:12;8.48;;;6.07;;
43620;SDS011;29213;50.770;7.298;2023-11-21T04:30:38;10.70;;;6.05;;
43620;SDS011;29213;50.770;7.298;2023-11-21T04:33:04;8.43;;;5.90;;
43620;SDS011;29213;50.770;7.298;2023-11-21T04:35:30;7.70;;;5.47;;
43620;SDS011;29213;50.770;7.298;2023-11-21T04:37:55;8.60;;;5.40;;
43620;SDS011;29213;50.770;7.298;2023-11-21T04:40:22;9.00;;;5.60;;
43620;SDS011;29213;50.770;7.298;2023-11-21T04:42:48;9.10;;;5.60;;
43620;SDS011;29213;50.770;7.298;2023-11-21T04:45:13;9.82;;;5.30;;
43620;SDS011;29213;50.770;7.298;2023-11-21T04:47:39;8.85;;;5.72;;
43620;SDS011;29213;50.770;7.298;2023-11-21T04:50:04;8.35;;;5.45;;
43620;SDS011;29213;50.770;7.298;2023-11-21T04:52:31;7.43;;;5.50;;
43620;SDS011;29213;50.770;7.298;2023-11-21T04:54:57;9.15;;;5.55;;
43620;SDS011;29213;50.770;7.298;2023-11-21T04:57:24;8.65;;;5.47;;
43620;SDS011;29213;50.770;7.298;2023-11-21T04:59:49;9.20;;;6.30;;
43620;SDS011;29213;50.770;7.298;2023-11-21T05:02:15;9.32;;;5.53;;
43620;SDS011;29213;50.770;7.298;2023-11-21T05:04:41;8.43;;;5.78;;
43620;SDS011;29213;50.770;7.298;2023-11-21T05:07:08;8.70;;;5.82;;
43620;SDS011;29213;50.770;7.298;2023-11-21T05:09:33;16.42;;;8.73;;
43620;SDS011;29213;50.770;7.298;2023-11-21T05:12:00;10.93;;;7.50;;
43620;SDS011;29213;50.770;7.298;2023-11-21T05:14:27;10.00;;;6.88;;
43620;SDS011;29213;50.770;7.298;2023-11-21T05:16:52;8.43;;;6.25;;
43620;SDS011;29213;50.770;7.298;2023-11-21T05:19:17;9.63;;;6.30;;
43620;SDS011;29213;50.770;7.298;2023-11-21T05:21:43;10.70;;;7.00;;
43620;SDS011;29213;50.770;7.298;2023-11-21T05:24:08;9.73;;;6.25;;
43620;SDS011;29213;50.770;7.298;2023-11-21T05:26:34;11.63;;;6.93;;
43620;SDS011;29213;50.770;7.298;2023-11-21T05:29:00;13.35;;;8.10;;
43620;SDS011;29213;50.770;7.298;2023-11-21T05:31:25;10.98;;;7.63;;
43620;SDS011;29213;50.770;7.298;2023-11-21T05:33:52;11.15;;;7.85;;
43620;SDS011;29213;50.770;7.298;2023-11-21T05:36:18;13.25;;;8.00;;
43620;SDS011;29213;50.770;7.298;2023-11-21T05:38:43;11.85;;;8.65;;
43620;SDS011;29213;50.770;7.298;2023-11-21T05:41:09;11.38;;;7.82;;
43620;SDS011;29213;50.770;7.298;2023-11-21T05:43:38;13.47;;;8.80;;
43620;SDS011;29213;50.770;7.298;2023-11-21T05:46:04;13.20;;;8.63;;
43620;SDS011;29213;50.770;7.298;2023-11-21T05:48:30;11.93;;;8.25;;
43620;SDS011;29213;50.770;7.298;2023-11-21T05:50:56;11.70;;;8.10;;
43620;SDS011;29213;50.770;7.298;2023-11-21T05:53:21;11.65;;;8.35;;
43620;SDS011;29213;50.770;7.298;2023-11-21T05:55:47;13.65;;;10.15;;
43620;SDS011;29213;50.770;7.298;2023-11-21T05:58:13;18.50;;;10.10;;
43620;SDS011;29213;50.770;7.298;2023-11-21T06:00:39;16.27;;;10.13;;
43620;SDS011;29213;50.770;7.298;2023-11-21T06:03:04;13.35;;;8.50;;
43620;SDS011;29213;50.770;7.298;2023-11-21T06:05:32;10.07;;;7.35;;
43620;SDS011;29213;50.770;7.298;2023-11-21T06:07:58;9.38;;;6.70;;
43620;SDS011;29213;50.770;7.298;2023-11-21T06:10:24;11.07;;;6.85;;
43620;SDS011;29213;50.770;7.298;2023-11-21T06:12:50;11.63;;;8.07;;
43620;SDS011;29213;50.770;7.298;2023-11-21T06:15:16;10.88;;;7.93;;
43620;SDS011;29213;50.770;7.298;2023-11-21T06:17:44;11.32;;;8.35;;
43620;SDS011;29213;50.770;7.298;2023-11-21T06:22:40;10.60;;;7.80;;
43620;SDS011;29213;50.770;7.298;2023-11-21T06:25:07;10.60;;;7.80;;
43620;SDS011;29213;50.770;7.298;2023-11-21T06:27:34;11.98;;;7.90;;
43620;SDS011;29213;50.770;7.298;2023-11-21T06:30:02;12.50;;;7.95;;
43620;SDS011;29213;50.770;7.298;2023-11-21T06:32:28;11.43;;;8.55;;
43620;SDS011;29213;50.770;7.298;2023-11-21T06:34:57;11.57;;;7.70;;
43620;SDS011;29213;50.770;7.298;2023-11-21T06:37:29;10.63;;;7.25;;
43620;SDS011;29213;50.770;7.298;2023-11-21T06:39:55;12.97;;;8.23;;
43620;SDS011;29213;50.770;7.298;2023-11-21T06:42:22;11.63;;;7.80;;
43620;SDS011;29213;50.770;7.298;2023-11-21T06:44:49;13.32;;;8.35;;
43620;SDS011;29213;50.770;7.298;2023-11-21T06:47:16;12.95;;;8.60;;
43620;SDS011;29213;50.770;7.298;2023-11-21T06:49:43;11.90;;;7.97;;
43620;SDS011;29213;50.770;7.298;2023-11-21T06:52:08;10.68;;;8.10;;
43620;SDS011;29213;50.770;7.298;2023-11-21T06:54:34;14.85;;;9.27;;
43620;SDS011;29213;50.770;7.298;2023-11-21T06:57:00;15.20;;;9.48;;
43620;SDS011;29213;50.770;7.298;2023-11-21T06:59:25;17.08;;;11.32;;
43620;SDS011;29213;50.770;7.298;2023-11-21T07:01:53;13.98;;;9.50;;
43620;SDS011;29213;50.770;7.298;2023-11-21T07:04:19;12.82;;;8.75;;
43620;SDS011;29213;50.770;7.298;2023-11-21T07:06:45;12.55;;;8.48;;
43620;SDS011;29213;50.770;7.298;2023-11-21T07:09:10;10.25;;;7.75;;
43620;SDS011;29213;50.770;7.298;2023-11-21T07:11:37;12.13;;;8.63;;
43620;SDS011;29213;50.770;7.298;2023-11-21T07:14:03;10.95;;;8.40;;
43620;SDS011;29213;50.770;7.298;2023-11-21T07:16:35;14.45;;;9.20;;
43620;SDS011;29213;50.770;7.298;2023-11-21T07:19:06;14.43;;;9.75;;
43620;SDS011;29213;50.770;7.298;2023-11-21T07:21:32;15.10;;;9.15;;
43620;SDS011;29213;50.770;7.298;2023-11-21T07:23:59;12.35;;;8.82;;
43620;SDS011;29213;50.770;7.298;2023-11-21T07:26:26;12.63;;;9.07;;
43620;SDS011;29213;50.770;7.298;2023-11-21T07:28:52;13.23;;;8.93;;
43620;SDS011;29213;50.770;7.298;2023-11-21T07:31:18;14.35;;;9.52;;
43620;SDS011;29213;50.770;7.298;2023-11-21T07:33:47;14.63;;;10.02;;
43620;SDS011;29213;50.770;7.298;2023-11-21T07:36:13;13.40;;;9.85;;
43620;SDS011;29213;50.770;7.298;2023-11-21T07:42:13;17.20;;;10.73;;
43620;SDS011;29213;50.770;7.298;2023-11-21T07:44:38;15.27;;;10.60;;
43620;SDS011;29213;50.770;7.298;2023-11-21T07:47:04;15.43;;;10.88;;
43620;SDS011;29213;50.770;7.298;2023-11-21T07:49:29;18.85;;;12.90;;
43620;SDS011;29213;50.770;7.298;2023-11-21T07:51:55;21.25;;;12.95;;
43620;SDS011;29213;50.770;7.298;2023-11-21T07:54:20;17.52;;;12.27;;
43620;SDS011;29213;50.770;7.298;2023-11-21T07:56:46;19.90;;;12.23;;
43620;SDS011;29213;50.770;7.298;2023-11-21T07:59:12;16.60;;;11.77;;
43620;SDS011;29213;50.770;7.298;2023-11-21T08:01:39;18.08;;;12.65;;
43620;SDS011;29213;50.770;7.298;2023-11-21T08:04:05;19.42;;;12.45;;
43620;SDS011;29213;50.770;7.298;2023-11-21T08:06:31;18.67;;;12.93;;
43620;SDS011;29213;50.770;7.298;2023-11-21T08:08:58;19.10;;;13.35;;
43620;SDS011;29213;50.770;7.298;2023-11-21T08:11:23;20.38;;;12.55;;
43620;SDS011;29213;50.770;7.298;2023-11-21T08:13:49;16.23;;;11.60;;
43620;SDS011;29213;50.770;7.298;2023-11-21T08:16:14;18.73;;;11.60;;
43620;SDS011;29213;50.770;7.298;2023-11-21T08:18:41;21.20;;;12.65;;
43620;SDS011;29213;50.770;7.298;2023-11-21T08:21:06;19.58;;;12.68;;
43620;SDS011;29213;50.770;7.298;2023-11-21T08:23:33;21.15;;;13.15;;
43620;SDS011;29213;50.770;7.298;2023-11-21T08:25:59;24.77;;;15.50;;
43620;SDS011;29213;50.770;7.298;2023-11-21T08:28:25;20.85;;;13.57;;
43620;SDS011;29213;50.770;7.298;2023-11-21T08:30:54;19.95;;;13.20;;
43620;SDS011;29213;50.770;7.298;2023-11-21T08:33:19;19.52;;;13.10;;
43620;SDS011;29213;50.770;7.298;2023-11-21T08:35:45;21.65;;;13.35;;
43620;SDS011;29213;50.770;7.298;2023-11-21T08:38:11;20.48;;;13.40;;
43620;SDS011;29213;50.770;7.298;2023-11-21T08:40:37;19.23;;;11.07;;
43620;SDS011;29213;50.770;7.298;2023-11-21T08:43:03;18.73;;;13.38;;
43620;SDS011;29213;50.770;7.298;2023-11-21T08:45:33;19.08;;;13.20;;
43620;SDS011;29213;50.770;7.298;2023-11-21T08:47:59;21.83;;;14.38;;
43620;SDS011;29213;50.770;7.298;2023-11-21T08:50:25;26.00;;;16.15;;
43620;SDS011;29213;50.770;7.298;2023-11-21T08:52:51;30.13;;;18.08;;
43620;SDS011;29213;50.770;7.298;2023-11-21T08:55:16;28.13;;;17.67;;
43620;SDS011;29213;50.770;7.298;2023-11-21T08:57:43;28.38;;;18.33;;
43620;SDS011;29213;50.770;7.298;2023-11-21T09:00:09;32.58;;;19.85;;
43620;SDS011;29213;50.770;7.298;2023-11-21T09:02:36;34.55;;;21.60;;
43620;SDS011;29213;50.770;7.298;2023-11-21T09:05:03;31.65;;;17.95;;
43620;SDS011;29213;50.770;7.298;2023-11-21T09:07:29;28.27;;;17.45;;
43620;SDS011;29213;50.770;7.298;2023-11-21T09:09:55;28.30;;;17.95;;
43620;SDS011;29213;50.770;7.298;2023-11-21T09:12:21;23.52;;;15.48;;
43620;SDS011;29213;50.770;7.298;2023-11-21T09:14:47;27.45;;;17.48;;
43620;SDS011;29213;50.770;7.298;2023-11-21T09:17:12;27.73;;;16.70;;
43620;SDS011;29213;50.770;7.298;2023-11-21T09:19:38;26.50;;;16.42;;
43620;SDS011;29213;50.770;7.298;2023-11-21T09:22:04;23.88;;;16.23;;
43620;SDS011;29213;50.770;7.298;2023-11-21T09:24:30;26.73;;;16.73;;
43620;SDS011;29213;50.770;7.298;2023-11-21T09:26:56;24.98;;;16.75;;
43620;SDS011;29213;50.770;7.298;2023-11-21T09:29:22;23.10;;;15.45;;
43620;SDS011;29213;50.770;7.298;2023-11-21T09:31:47;28.20;;;16.67;;
43620;SDS011;29213;50.770;7.298;2023-11-21T09:34:13;25.15;;;16.30;;
43620;SDS011;29213;50.770;7.298;2023-11-21T09:36:38;27.25;;;17.60;;
43620;SDS011;29213;50.770;7.298;2023-11-21T09:39:04;25.55;;;16.23;;
43620;SDS011;29213;50.770;7.298;2023-11-21T09:41:39;26.33;;;17.80;;
43620;SDS011;29213;50.770;7.298;2023-11-21T09:44:11;24.25;;;16.52;;
43620;SDS011;29213;50.770;7.298;2023-11-21T09:46:41;28.35;;;17.75;;
43620;SDS011;29213;50.770;7.298;2023-11-21T09:49:11;28.13;;;17.83;;
43620;SDS011;29213;50.770;7.298;2023-11-21T09:51:39;26.92;;;17.15;;
43620;SDS011;29213;50.770;7.298;2023-11-21T09:54:07;28.00;;;16.90;;
43620;SDS011;29213;50.770;7.298;2023-11-21T09:56:35;23.95;;;16.17;;
43620;SDS011;29213;50.770;7.298;2023-11-21T09:59:02;28.05;;;17.55;;
43620;SDS011;29213;50.770;7.298;2023-11-21T10:01:35;26.98;;;16.70;;
43620;SDS011;29213;50.770;7.298;2023-11-21T10:04:01;38.50;;;18.25;;
43620;SDS011;29213;50.770;7.298;2023-11-21T10:06:27;25.20;;;16.30;;
43620;SDS011;29213;50.770;7.298;2023-11-21T10:08:55;23.63;;;15.57;;
43620;SDS011;29213;50.770;7.298;2023-11-21T10:11:23;25.20;;;15.60;;
43620;SDS011;29213;50.770;7.298;2023-11-21T10:13:52;35.15;;;17.92;;
43620;SDS011;29213;50.770;7.298;2023-11-21T10:16:19;24.42;;;16.20;;
43620;SDS011;29213;50.770;7.298;2023-11-21T10:18:46;26.20;;;16.33;;
43620;SDS011;29213;50.770;7.298;2023-11-21T10:21:17;24.77;;;16.92;;
43620;SDS011;29213;50.770;7.298;2023-11-21T10:23:43;25.33;;;17.17;;
43620;SDS011;29213;50.770;7.298;2023-11-21T10:26:09;30.15;;;18.02;;
43620;SDS011;29213;50.770;7.298;2023-11-21T10:28:41;28.80;;;19.55;;
43620;SDS011;29213;50.770;7.298;2023-11-21T10:31:20;27.90;;;19.10;;
43620;SDS011;29213;50.770;7.298;2023-11-21T10:33:46;30.73;;;19.58;;
43620;SDS011;29213;50.770;7.298;2023-11-21T10:36:11;29.15;;;19.60;;
43620;SDS011;29213;50.770;7.298;2023-11-21T10:38:41;31.25;;;20.27;;
43620;SDS011;29213;50.770;7.298;2023-11-21T10:41:10;27.52;;;19.00;;
43620;SDS011;29213;50.770;7.298;2023-11-21T10:43:38;27.15;;;18.02;;
43620;SDS011;29213;50.770;7.298;2023-11-21T10:46:03;27.67;;;18.23;;
43620;SDS011;29213;50.770;7.298;2023-11-21T10:48:30;30.13;;;18.67;;
43620;SDS011;29213;50.770;7.298;2023-11-21T10:50:57;25.08;;;16.90;;
43620;SDS011;29213;50.770;7.298;2023-11-21T10:53:22;26.98;;;17.25;;
43620;SDS011;29213;50.770;7.298;2023-11-21T10:55:49;30.73;;;18.48;;
43620;SDS011;29213;50.770;7.298;2023-11-21T10:58:14;30.13;;;19.75;;
43620;SDS011;29213;50.770;7.298;2023-11-21T11:00:39;24.35;;;16.83;;
43620;SDS011;29213;50.770;7.298;2023-11-21T11:03:05;27.55;;;18.75;;
43620;SDS011;29213;50.770;7.298;2023-11-21T11:05:38;25.38;;;17.60;;
43620;SDS011;29213;50.770;7.298;2023-11-21T11:08:06;29.27;;;17.75;;
43620;SDS011;29213;50.770;7.298;2023-11-21T11:10:33;25.88;;;16.52;;
43620;SDS011;29213;50.770;7.298;2023-11-21T11:13:00;24.30;;;17.45;;
43620;SDS011;29213;50.770;7.298;2023-11-21T11:15:26;24.92;;;17.02;;
43620;SDS011;29213;50.770;7.298;2023-11-21T11:17:53;23.33;;;15.88;;
43620;SDS011;29213;50.770;7.298;2023-11-21T11:20:22;22.70;;;15.93;;
43620;SDS011;29213;50.770;7.298;2023-11-21T11:23:03;22.13;;;15.63;;
43620;SDS011;29213;50.770;7.298;2023-11-21T11:28:20;25.30;;;17.17;;
43620;SDS011;29213;50.770;7.298;2023-11-21T11:31:00;25.98;;;17.50;;
43620;SDS011;29213;50.770;7.298;2023-11-21T11:33:39;26.88;;;17.33;;
43620;SDS011;29213;50.770;7.298;2023-11-21T11:39:26;22.80;;;15.40;;
43620;SDS011;29213;50.770;7.298;2023-11-21T11:41:58;29.50;;;18.95;;
43620;SDS011;29213;50.770;7.298;2023-11-21T11:44:48;26.20;;;18.10;;
43620;SDS011;29213;50.770;7.298;2023-11-21T11:47:29;24.92;;;16.88;;
43620;SDS011;29213;50.770;7.298;2023-11-21T11:50:08;25.88;;;17.17;;
43620;SDS011;29213;50.770;7.298;2023-11-21T11:52:44;27.38;;;17.13;;
43620;SDS011;29213;50.770;7.298;2023-11-21T11:55:11;26.95;;;17.90;;
43620;SDS011;29213;50.770;7.298;2023-11-21T11:57:39;24.98;;;16.77;;
43620;SDS011;29213;50.770;7.298;2023-11-21T12:02:43;25.30;;;16.33;;
43620;SDS011;29213;50.770;7.298;2023-11-21T12:05:13;21.60;;;15.18;;
43620;SDS011;29213;50.770;7.298;2023-11-21T12:07:44;21.50;;;15.20;;
43620;SDS011;29213;50.770;7.298;2023-11-21T12:10:12;21.23;;;14.82;;
43620;SDS011;29213;50.770;7.298;2023-11-21T12:12:43;20.50;;;14.95;;
43620;SDS011;29213;50.770;7.298;2023-11-21T12:15:13;26.13;;;16.27;;
43620;SDS011;29213;50.770;7.298;2023-11-21T12:17:39;24.77;;;15.38;;
43620;SDS011;29213;50.770;7.298;2023-11-21T12:20:07;20.88;;;15.30;;
43620;SDS011;29213;50.770;7.298;2023-11-21T12:22:48;22.42;;;15.23;;
43620;SDS011;29213;50.770;7.298;2023-11-21T12:25:17;23.55;;;16.38;;
43620;SDS011;29213;50.770;7.298;2023-11-21T12:27:48;25.15;;;15.68;;
43620;SDS011;29213;50.770;7.298;2023-11-21T12:30:15;23.67;;;16.73;;
43620;SDS011;29213;50.770;7.298;2023-11-21T12:32:48;31.52;;;16.73;;
43620;SDS011;29213;50.770;7.298;2023-11-21T12:35:15;22.25;;;15.52;;
43620;SDS011;29213;50.770;7.298;2023-11-21T12:37:44;24.80;;;15.73;;
43620;SDS011;29213;50.770;7.298;2023-11-21T12:40:10;26.67;;;17.88;;
43620;SDS011;29213;50.770;7.298;2023-11-21T12:42:46;27.42;;;17.90;;
43620;SDS011;29213;50.770;7.298;2023-11-21T12:47:49;27.88;;;16.33;;
43620;SDS011;29213;50.770;7.298;2023-11-21T12:50:18;23.60;;;16.08;;
43620;SDS011;29213;50.770;7.298;2023-11-21T12:52:49;25.17;;;16.30;;
43620;SDS011;29213;50.770;7.298;2023-11-21T12:55:22;23.38;;;14.88;;
43620;SDS011;29213;50.770;7.298;2023-11-21T12:57:51;21.30;;;13.98;;
43620;SDS011;29213;50.770;7.298;2023-11-21T13:01:06;22.23;;;14.85;;
43620;SDS011;29213;50.770;7.298;2023-11-21T13:03:13;21.50;;;14.30;;
43620;SDS011;29213;50.770;7.298;2023-11-21T13:05:50;25.08;;;16.75;;
43620;SDS011;29213;50.770;7.298;2023-11-21T13:08:19;27.77;;;16.55;;
43620;SDS011;29213;50.770;7.298;2023-11-21T13:10:48;26.13;;;15.98;;
43620;SDS011;29213;50.770;7.298;2023-11-21T13:13:15;23.92;;;15.88;;
43620;SDS011;29213;50.770;7.298;2023-11-21T13:15:47;23.08;;;15.55;;
43620;SDS011;29213;50.770;7.298;2023-11-21T13:18:14;26.48;;;17.27;;
43620;SDS011;29213;50.770;7.298;2023-11-21T13:20:41;25.77;;;17.13;;
43620;SDS011;29213;50.770;7.298;2023-11-21T13:23:08;25.08;;;16.63;;
43620;SDS011;29213;50.770;7.298;2023-11-21T13:25:37;26.13;;;17.17;;
43620;SDS011;29213;50.770;7.298;2023-11-21T13:28:04;29.98;;;19.55;;
43620;SDS011;29213;50.770;7.298;2023-11-21T13:30:30;27.02;;;17.17;;
43620;SDS011;29213;50.770;7.298;2023-11-21T13:32:59;24.90;;;16.40;;
43620;SDS011;29213;50.770;7.298;2023-11-21T13:35:31;26.02;;;17.10;;
43620;SDS011;29213;50.770;7.298;2023-11-21T13:38:10;25.53;;;16.67;;
43620;SDS011;29213;50.770;7.298;2023-11-21T13:40:38;22.73;;;15.35;;
43620;SDS011;29213;50.770;7.298;2023-11-21T13:43:11;27.77;;;16.98;;
43620;SDS011;29213;50.770;7.298;2023-11-21T13:45:39;23.52;;;14.93;;
43620;SDS011;29213;50.770;7.298;2023-11-21T13:48:05;25.45;;;16.17;;
43620;SDS011;29213;50.770;7.298;2023-11-21T13:50:38;26.05;;;17.65;;
43620;SDS011;29213;50.770;7.298;2023-11-21T13:53:04;24.23;;;15.73;;
43620;SDS011;29213;50.770;7.298;2023-11-21T13:55:51;26.25;;;15.57;;
43620;SDS011;29213;50.770;7.298;2023-11-21T13:58:22;26.33;;;17.13;;
43620;SDS011;29213;50.770;7.298;2023-11-21T14:00:57;25.50;;;15.55;;
43620;SDS011;29213;50.770;7.298;2023-11-21T14:03:23;27.70;;;16.85;;
43620;SDS011;29213;50.770;7.298;2023-11-21T14:05:57;23.35;;;15.02;;
43620;SDS011;29213;50.770;7.298;2023-11-21T14:08:23;22.42;;;15.20;;
43620;SDS011;29213;50.770;7.298;2023-11-21T14:10:54;23.63;;;15.85;;
43620;SDS011;29213;50.770;7.298;2023-11-21T14:13:25;26.90;;;16.85;;
43620;SDS011;29213;50.770;7.298;2023-11-21T14:15:50;24.35;;;15.88;;
43620;SDS011;29213;50.770;7.298;2023-11-21T14:18:22;25.60;;;15.80;;
43620;SDS011;29213;50.770;7.298;2023-11-21T14:20:57;24.60;;;14.68;;
43620;SDS011;29213;50.770;7.298;2023-11-21T14:23:23;24.77;;;15.52;;
43620;SDS011;29213;50.770;7.298;2023-11-21T14:25:48;24.83;;;15.50;;
43620;SDS011;29213;50.770;7.298;2023-11-21T14:28:17;25.40;;;15.70;;
43620;SDS011;29213;50.770;7.298;2023-11-21T14:30:44;27.27;;;16.88;;
43620;SDS011;29213;50.770;7.298;2023-11-21T14:33:12;24.73;;;15.57;;
43620;SDS011;29213;50.770;7.298;2023-11-21T14:35:38;29.00;;;15.82;;
43620;SDS011;29213;50.770;7.298;2023-11-21T14:38:03;24.63;;;15.93;;
43620;SDS011;29213;50.770;7.298;2023-11-21T14:40:33;25.92;;;14.77;;
43620;SDS011;29213;50.770;7.298;2023-11-21T14:43:00;24.30;;;14.80;;
43620;SDS011;29213;50.770;7.298;2023-11-21T14:45:26;26.90;;;15.75;;
43620;SDS011;29213;50.770;7.298;2023-11-21T14:47:54;23.33;;;14.23;;
43620;SDS011;29213;50.770;7.298;2023-11-21T14:50:40;34.88;;;19.75;;